createdAt,value
2018-05-02T00:00:02.209Z,3.83
2018-05-02T00:02:30.924Z,8.77
2018-05-02T00:04:59.680Z,7.67
2018-05-02T00:07:28.391Z,5.50
2018-05-02T00:09:57.888Z,4.13
2018-05-02T00:12:26.671Z,6.97
2018-05-02T00:14:56.208Z,5.73
2018-05-02T00:17:24.869Z,3.60
2018-05-02T00:19:54.354Z,4.83
2018-05-02T00:22:22.965Z,15.63
2018-05-02T00:24:52.273Z,3.10
2018-05-02T00:27:21.982Z,5.97
2018-05-02T00:29:50.912Z,6.83
2018-05-02T00:32:19.579Z,6.33
2018-05-02T00:34:49.203Z,5.43
2018-05-02T00:37:18.685Z,4.37
2018-05-02T00:39:47.193Z,7.90
2018-05-02T00:42:15.976Z,5.60
2018-05-02T00:44:44.736Z,3.37
2018-05-02T00:47:13.500Z,6.10
2018-05-02T00:49:42.301Z,6.43
2018-05-02T00:52:11.086Z,4.90
2018-05-02T00:54:40.348Z,3.90
2018-05-02T00:57:10.673Z,2.57
2018-05-02T00:59:39.686Z,5.93
2018-05-02T01:02:08.566Z,3.33
2018-05-02T01:04:38.856Z,5.63
2018-05-02T01:07:07.688Z,4.60
2018-05-02T01:09:36.464Z,4.63
2018-05-02T01:12:05.481Z,4.10
2018-05-02T01:14:34.425Z,5.50
2018-05-02T01:17:03.104Z,6.30
2018-05-02T01:19:32.024Z,4.23
2018-05-02T01:22:01.755Z,3.40
2018-05-02T01:24:32.065Z,3.60
2018-05-02T01:27:01.877Z,8.20
2018-05-02T01:29:31.315Z,5.70
2018-05-02T01:32:00.630Z,5.37
2018-05-02T01:34:29.401Z,3.87
2018-05-02T01:36:58.148Z,6.57
2018-05-02T01:39:26.763Z,5.90
2018-05-02T01:41:55.491Z,4.47
2018-05-02T01:44:24.218Z,6.57
2018-05-02T01:46:52.830Z,8.90
2018-05-02T01:49:25.327Z,9.30
2018-05-02T01:51:54.609Z,9.50
2018-05-02T01:54:23.883Z,7.93
2018-05-02T01:56:52.650Z,7.03
2018-05-02T01:59:21.307Z,8.33
2018-05-02T02:01:49.871Z,8.47
2018-05-02T02:04:18.523Z,5.77
2018-05-02T02:06:47.175Z,7.47
2018-05-02T02:09:15.845Z,9.70
2018-05-02T02:11:45.302Z,7.73
2018-05-02T02:14:14.044Z,8.40
2018-05-02T02:16:42.772Z,8.03
2018-05-02T02:19:11.388Z,7.23
2018-05-02T02:21:39.968Z,6.30
2018-05-02T02:24:08.837Z,13.13
2018-05-02T02:26:38.184Z,8.67
2018-05-02T02:29:07.084Z,9.73
2018-05-02T02:31:35.665Z,7.73
2018-05-02T02:34:05.321Z,9.23
2018-05-02T02:36:34.016Z,9.50
2018-05-02T02:39:02.860Z,10.17
2018-05-02T02:41:31.625Z,9.30
2018-05-02T02:44:00.465Z,10.47
2018-05-02T02:46:29.059Z,9.07
2018-05-02T02:48:57.860Z,11.87
2018-05-02T02:51:26.535Z,10.47
2018-05-02T02:53:56.009Z,12.17
2018-05-02T02:56:25.447Z,9.23
2018-05-02T02:58:55.197Z,10.47
2018-05-02T03:01:24.193Z,12.73
2018-05-02T03:03:53.100Z,9.53
2018-05-02T03:06:21.901Z,11.20
2018-05-02T03:08:50.451Z,11.43
2018-05-02T03:11:19.464Z,10.93
2018-05-02T03:13:48.707Z,10.60
2018-05-02T03:16:17.607Z,11.47
2018-05-02T03:18:47.008Z,13.17
2018-05-02T03:21:15.767Z,17.20
2018-05-02T03:23:44.395Z,13.07
2018-05-02T03:26:13.402Z,16.77
2018-05-02T03:28:43.037Z,16.97
2018-05-02T03:31:12.318Z,14.30
2018-05-02T03:33:42.763Z,11.53
2018-05-02T03:36:12.415Z,12.97
2018-05-02T03:38:41.214Z,11.10
2018-05-02T03:41:10.839Z,11.57
2018-05-02T03:43:40.306Z,12.10
2018-05-02T03:46:09.086Z,12.97
2018-05-02T03:48:37.889Z,14.13
2018-05-02T03:51:06.802Z,10.30
2018-05-02T03:53:36.776Z,13.77
2018-05-02T03:56:06.206Z,15.20
2018-05-02T03:58:35.786Z,13.03
2018-05-02T04:01:22.748Z,11.77
2018-05-02T04:04:09.631Z,14.50
2018-05-02T04:06:56.647Z,14.60
2018-05-02T04:09:25.235Z,12.47
2018-05-02T04:11:56.438Z,12.33
2018-05-02T04:14:25.751Z,12.53
2018-05-02T04:16:54.429Z,12.53
2018-05-02T04:19:23.101Z,10.07
2018-05-02T04:21:51.750Z,13.17
2018-05-02T04:24:20.375Z,12.03
2018-05-02T04:26:49.083Z,12.97
2018-05-02T04:29:17.717Z,11.10
2018-05-02T04:31:46.283Z,9.90
2018-05-02T04:34:15.107Z,11.73
2018-05-02T04:36:44.024Z,15.40
2018-05-02T04:39:12.729Z,14.03
2018-05-02T04:41:41.544Z,14.03
2018-05-02T04:44:10.774Z,14.13
2018-05-02T04:46:39.709Z,14.47
2018-05-02T04:49:08.328Z,15.10
2018-05-02T04:51:37.790Z,14.00
2018-05-02T04:54:06.408Z,16.37
2018-05-02T04:56:35.009Z,13.23
2018-05-02T04:59:03.882Z,15.90
2018-05-02T05:01:33.521Z,13.43
2018-05-02T05:04:04.976Z,17.10
2018-05-02T05:06:34.027Z,16.07
2018-05-02T05:09:04.298Z,11.60
2018-05-02T05:11:33.955Z,12.20
2018-05-02T05:14:04.621Z,11.47
2018-05-02T05:16:34.910Z,10.77
2018-05-02T05:19:03.928Z,10.97
2018-05-02T05:21:32.709Z,14.80
2018-05-02T05:24:01.527Z,13.23
2018-05-02T05:26:30.259Z,11.93
2018-05-02T05:28:58.836Z,10.90
2018-05-02T05:31:29.552Z,15.07
2018-05-02T05:33:59.125Z,11.70
2018-05-02T05:36:27.802Z,11.77
2018-05-02T05:38:57.463Z,10.47
2018-05-02T05:41:26.587Z,10.07
2018-05-02T05:43:55.336Z,11.37
2018-05-02T05:46:24.048Z,8.30
2018-05-02T05:48:52.593Z,10.57
2018-05-02T05:51:21.245Z,8.70
2018-05-02T05:53:49.916Z,7.70
2018-05-02T05:56:18.620Z,6.13
2018-05-02T05:58:47.856Z,9.27
2018-05-02T06:01:17.074Z,7.37
2018-05-02T06:03:47.788Z,7.07
2018-05-02T06:06:17.966Z,6.30
2018-05-02T06:08:47.734Z,7.23
2018-05-02T06:11:19.145Z,6.87
2018-05-02T06:13:48.347Z,7.80
2018-05-02T06:16:17.980Z,7.17
2018-05-02T06:18:54.335Z,7.60
2018-05-02T06:21:23.193Z,9.57
2018-05-02T06:23:51.963Z,7.27
2018-05-02T06:26:21.482Z,7.20
2018-05-02T06:28:50.118Z,5.93
2018-05-02T06:31:19.457Z,5.40
2018-05-02T06:33:49.474Z,6.87
2018-05-02T06:36:18.944Z,7.73
2018-05-02T06:38:49.897Z,5.50
2018-05-02T06:41:18.932Z,6.47
2018-05-02T06:43:49.337Z,7.57
2018-05-02T06:46:18.164Z,6.63
2018-05-02T06:48:47.437Z,8.07
2018-05-02T06:51:17.342Z,8.83
2018-05-02T06:53:46.062Z,8.40
2018-05-02T06:56:14.876Z,6.67
2018-05-02T06:58:45.330Z,7.57
2018-05-02T07:01:15.212Z,7.10
2018-05-02T07:03:43.865Z,6.57
2018-05-02T07:06:12.537Z,10.37
2018-05-02T07:08:42.256Z,7.47
2018-05-02T07:11:11.154Z,8.83
2018-05-02T07:13:41.469Z,9.03
2018-05-02T07:16:10.530Z,11.33
2018-05-02T07:18:39.423Z,6.70
2018-05-02T07:21:08.359Z,9.63
2018-05-02T07:23:37.678Z,8.03
2018-05-02T07:26:07.169Z,7.97
2018-05-02T07:28:36.833Z,6.20
2018-05-02T07:31:07.672Z,8.83
2018-05-02T07:33:36.625Z,6.03
2018-05-02T07:36:05.411Z,6.23
2018-05-02T07:38:34.312Z,5.47
2018-05-02T07:41:04.301Z,6.80
2018-05-02T07:43:33.271Z,7.53
2018-05-02T07:46:03.011Z,10.47
2018-05-02T07:48:33.378Z,6.83
2018-05-02T07:51:04.053Z,7.10
2018-05-02T07:53:34.196Z,8.60
2018-05-02T07:56:04.711Z,6.50
2018-05-02T07:58:34.398Z,6.30
2018-05-02T08:01:04.452Z,7.97
2018-05-02T08:03:34.752Z,9.77
2018-05-02T08:06:04.942Z,6.73
2018-05-02T08:08:33.742Z,14.07
2018-05-02T08:11:03.570Z,8.57
2018-05-02T08:13:33.002Z,6.60
2018-05-02T08:16:01.812Z,11.03
2018-05-02T08:18:31.993Z,8.80
2018-05-02T08:21:02.270Z,11.50
2018-05-02T08:23:32.031Z,7.97
2018-05-02T08:26:01.064Z,7.97
2018-05-02T08:28:30.884Z,7.60
2018-05-02T08:30:59.848Z,8.73
2018-05-02T08:33:29.381Z,12.43
2018-05-02T08:35:58.967Z,10.57
2018-05-02T08:38:27.773Z,11.07
2018-05-02T08:40:56.611Z,9.30
2018-05-02T08:43:26.772Z,10.90
2018-05-02T08:45:56.850Z,7.70
2018-05-02T08:48:26.475Z,8.07
2018-05-02T08:50:55.524Z,9.93
2018-05-02T08:53:24.355Z,9.87
2018-05-02T08:55:53.960Z,9.50
2018-05-02T08:58:23.319Z,8.57
2018-05-02T09:00:52.587Z,9.63
2018-05-02T09:03:21.277Z,9.70
2018-05-02T09:05:50.011Z,8.23
2018-05-02T09:08:18.891Z,7.50
2018-05-02T09:10:47.836Z,8.40
2018-05-02T09:13:16.605Z,7.93
2018-05-02T09:15:46.545Z,9.97
2018-05-02T09:18:16.805Z,9.63
2018-05-02T09:20:45.631Z,7.70
2018-05-02T09:23:14.339Z,7.93
2018-05-02T09:25:43.005Z,8.60
2018-05-02T09:28:13.318Z,8.83
2018-05-02T09:30:42.968Z,11.90
2018-05-02T09:33:11.760Z,10.57
2018-05-02T09:35:41.251Z,10.20
2018-05-02T09:38:10.105Z,11.07
2018-05-02T09:40:39.515Z,11.10
2018-05-02T09:43:08.444Z,9.87
2018-05-02T09:45:38.136Z,15.47
2018-05-02T09:48:07.402Z,18.13
2018-05-02T09:50:37.045Z,12.53
2018-05-02T09:53:05.833Z,9.87
2018-05-02T09:55:36.019Z,7.83
2018-05-02T09:58:06.136Z,9.47
2018-05-02T10:00:34.952Z,7.50
2018-05-02T10:03:03.704Z,10.57
2018-05-02T10:05:32.457Z,9.63
2018-05-02T10:08:01.409Z,6.73
2018-05-02T10:10:30.374Z,9.27
2018-05-02T10:12:59.852Z,11.63
2018-05-02T10:15:29.289Z,10.27
2018-05-02T10:17:58.764Z,14.43
2018-05-02T10:20:27.561Z,8.47
2018-05-02T10:22:56.476Z,9.10
2018-05-02T10:25:25.258Z,9.83
2018-05-02T10:27:54.162Z,14.13
2018-05-02T10:30:24.407Z,11.30
2018-05-02T10:32:53.108Z,12.70
2018-05-02T10:35:23.209Z,13.97
2018-05-02T10:37:53.003Z,9.27
2018-05-02T10:40:22.816Z,13.57
2018-05-02T10:42:52.761Z,8.87
2018-05-02T10:45:22.831Z,13.70
2018-05-02T10:47:51.681Z,10.63
2018-05-02T10:50:20.343Z,9.63
2018-05-02T10:52:50.038Z,12.23
2018-05-02T10:55:18.848Z,12.77
2018-05-02T10:57:47.485Z,11.17
2018-05-02T11:00:17.406Z,14.33
2018-05-02T11:02:47.437Z,10.33
2018-05-02T11:05:16.153Z,11.60
2018-05-02T11:07:44.932Z,13.33
2018-05-02T11:10:13.600Z,11.30
2018-05-02T11:12:42.981Z,8.67
2018-05-02T11:15:12.010Z,10.30
2018-05-02T11:17:41.486Z,16.37
2018-05-02T11:20:10.271Z,10.90
2018-05-02T11:22:39.005Z,10.33
2018-05-02T11:25:07.811Z,13.03
2018-05-02T11:27:36.425Z,8.53
2018-05-02T11:30:05.238Z,8.67
2018-05-02T11:32:34.041Z,8.77
2018-05-02T11:35:02.883Z,8.40
2018-05-02T11:37:34.886Z,6.40
2018-05-02T11:40:03.851Z,12.33
2018-05-02T11:42:34.356Z,8.37
2018-05-02T11:45:04.150Z,6.87
2018-05-02T11:47:33.676Z,8.80
2018-05-02T11:50:02.380Z,9.13
2018-05-02T11:52:31.058Z,7.63
2018-05-02T11:55:00.320Z,8.53
2018-05-02T11:57:29.095Z,8.80
2018-05-02T11:59:58.929Z,9.67
2018-05-02T12:02:27.668Z,10.40
2018-05-02T12:05:01.697Z,14.47
2018-05-02T12:07:32.045Z,14.20
2018-05-02T12:10:01.697Z,8.33
2018-05-02T12:12:31.441Z,7.20
2018-05-02T12:15:00.591Z,7.60
2018-05-02T12:17:29.489Z,10.63
2018-05-02T12:19:58.420Z,7.87
2018-05-02T12:22:27.507Z,9.80
2018-05-02T12:24:58.243Z,9.93
2018-05-02T12:27:27.703Z,15.13
2018-05-02T12:29:56.677Z,20.07
2018-05-02T12:32:44.624Z,9.73
2018-05-02T12:35:13.297Z,11.93
2018-05-02T12:37:42.253Z,10.27
2018-05-02T12:40:11.089Z,10.10
2018-05-02T12:42:40.435Z,7.83
2018-05-02T12:45:09.716Z,8.40
2018-05-02T12:47:38.542Z,8.73
2018-05-02T12:50:07.445Z,10.30
2018-05-02T12:52:37.083Z,11.57
2018-05-02T12:55:07.886Z,7.57
2018-05-02T12:57:38.277Z,13.13
2018-05-02T13:00:09.618Z,11.60
2018-05-02T13:02:38.295Z,12.43
2018-05-02T13:05:07.514Z,11.97
2018-05-02T13:07:36.288Z,11.67
2018-05-02T13:10:05.256Z,9.70
2018-05-02T13:12:34.032Z,11.53
2018-05-02T13:15:02.910Z,7.97
2018-05-02T13:17:32.102Z,6.43
2018-05-02T13:20:01.099Z,8.20
2018-05-02T13:22:31.225Z,10.80
2018-05-02T13:25:00.201Z,11.80
2018-05-02T13:27:30.046Z,10.67
2018-05-02T13:29:59.497Z,16.43
2018-05-02T13:32:30.846Z,14.57
2018-05-02T13:34:59.845Z,9.30
2018-05-02T13:37:28.586Z,11.40
2018-05-02T13:39:57.472Z,9.33
2018-05-02T13:42:26.694Z,9.30
2018-05-02T13:45:02.843Z,9.73
2018-05-02T13:47:33.379Z,11.07
2018-05-02T13:50:02.865Z,9.67
2018-05-02T13:52:32.669Z,13.23
2018-05-02T13:57:44.637Z,8.20
2018-05-02T14:00:13.479Z,11.63
2018-05-02T14:02:44.471Z,11.60
2018-05-02T14:05:13.229Z,11.90
2018-05-02T14:07:42.099Z,11.03
2018-05-02T14:10:11.612Z,12.50
2018-05-02T14:12:41.014Z,9.77
2018-05-02T14:15:10.110Z,13.53
2018-05-02T14:17:39.641Z,10.80
2018-05-02T14:20:09.479Z,9.20
2018-05-02T14:22:38.853Z,9.30
2018-05-02T14:25:07.514Z,10.00
2018-05-02T14:27:37.266Z,8.43
2018-05-02T14:30:06.798Z,9.63
2018-05-02T14:32:36.547Z,11.30
2018-05-02T14:35:05.339Z,11.13
2018-05-02T14:37:34.348Z,10.67
2018-05-02T14:40:04.473Z,15.70
2018-05-02T14:42:33.287Z,11.17
2018-05-02T14:45:02.202Z,11.17
2018-05-02T14:47:31.413Z,11.10
2018-05-02T14:50:00.128Z,11.00
2018-05-02T14:52:29.185Z,10.07
2018-05-02T14:54:57.953Z,13.17
2018-05-02T14:57:27.677Z,11.07
2018-05-02T14:59:58.797Z,10.67
2018-05-02T15:02:28.012Z,21.23
2018-05-02T15:04:56.899Z,10.90
2018-05-02T15:07:25.787Z,9.13
2018-05-02T15:09:54.947Z,12.23
2018-05-02T15:12:23.584Z,13.30
2018-05-02T15:14:52.811Z,11.57
2018-05-02T15:17:21.872Z,9.80
2018-05-02T15:19:50.558Z,12.23
2018-05-02T15:22:19.535Z,14.23
2018-05-02T15:24:48.423Z,12.97
2018-05-02T15:27:17.206Z,13.70
2018-05-02T15:29:46.203Z,9.93
2018-05-02T15:32:16.265Z,10.67
2018-05-02T15:34:46.119Z,10.97
2018-05-02T15:37:16.080Z,15.20
2018-05-02T15:39:45.327Z,13.67
2018-05-02T15:42:14.088Z,14.20
2018-05-02T15:44:42.866Z,13.37
2018-05-02T15:47:12.336Z,11.50
2018-05-02T15:49:40.975Z,11.77
2018-05-02T15:52:09.683Z,11.77
2018-05-02T15:54:38.541Z,9.10
2018-05-02T15:57:08.083Z,12.37
2018-05-02T15:59:38.123Z,13.07
2018-05-02T16:02:07.302Z,12.63
2018-05-02T16:04:36.650Z,13.23
2018-05-02T16:07:05.422Z,8.37
2018-05-02T16:09:36.648Z,7.57
2018-05-02T16:12:06.576Z,10.13
2018-05-02T16:14:37.522Z,13.40
2018-05-02T16:17:06.487Z,11.77
2018-05-02T16:19:37.538Z,12.87
2018-05-02T16:22:08.574Z,13.63
2018-05-02T16:24:38.679Z,11.30
2018-05-02T16:27:08.450Z,9.50
2018-05-02T16:29:37.477Z,15.47
2018-05-02T16:32:08.676Z,12.07
2018-05-02T16:34:38.222Z,11.93
2018-05-02T16:37:07.438Z,13.47
2018-05-02T16:39:36.730Z,15.50
2018-05-02T16:42:05.713Z,12.97
2018-05-02T16:44:34.828Z,13.10
2018-05-02T16:47:04.607Z,9.20
2018-05-02T16:49:34.341Z,10.40
2018-05-02T16:52:05.389Z,13.17
2018-05-02T16:54:34.237Z,11.37
2018-05-02T16:57:03.230Z,12.93
2018-05-02T16:59:32.209Z,9.93
2018-05-02T17:02:00.974Z,8.20
2018-05-02T17:04:30.087Z,10.50
2018-05-02T17:06:59.600Z,10.63
2018-05-02T17:09:28.500Z,9.40
2018-05-02T17:11:57.325Z,10.63
2018-05-02T17:14:26.828Z,10.87
2018-05-02T17:16:55.822Z,13.63
2018-05-02T17:19:24.896Z,10.70
2018-05-02T17:21:55.102Z,9.73
2018-05-02T17:24:25.380Z,12.07
2018-05-02T17:26:55.010Z,17.07
2018-05-02T17:29:23.889Z,9.07
2018-05-02T17:31:52.812Z,15.13
2018-05-02T17:34:22.142Z,9.87
2018-05-02T17:36:52.010Z,10.53
2018-05-02T17:39:21.853Z,12.17
2018-05-02T17:41:51.451Z,11.73
2018-05-02T17:44:20.087Z,8.97
2018-05-02T17:46:50.903Z,10.97
2018-05-02T17:49:20.537Z,12.83
2018-05-02T17:51:49.971Z,11.13
2018-05-02T17:54:18.856Z,14.73
2018-05-02T17:56:47.795Z,12.50
2018-05-02T17:59:16.396Z,9.30
2018-05-02T18:01:45.052Z,10.47
2018-05-02T18:04:13.682Z,15.03
2018-05-02T18:06:42.368Z,13.67
2018-05-02T18:09:11.173Z,15.33
2018-05-02T18:11:40.336Z,11.97
2018-05-02T18:14:09.133Z,12.50
2018-05-02T18:16:37.915Z,12.53
2018-05-02T18:19:08.916Z,16.87
2018-05-02T18:21:38.169Z,12.33
2018-05-02T18:24:07.718Z,12.07
2018-05-02T18:26:36.560Z,11.73
2018-05-02T18:29:05.569Z,13.20
2018-05-02T18:31:35.128Z,11.70
2018-05-02T18:34:04.555Z,12.93
2018-05-02T18:36:34.060Z,16.13
2018-05-02T18:39:03.541Z,14.93
2018-05-02T18:41:33.864Z,9.33
2018-05-02T18:44:03.158Z,9.47
2018-05-02T18:46:33.279Z,13.73
2018-05-02T18:49:03.220Z,13.83
2018-05-02T18:51:32.327Z,15.17
2018-05-02T18:54:01.236Z,15.27
2018-05-02T18:56:30.053Z,15.07
2018-05-02T18:58:59.770Z,13.40
2018-05-02T19:01:29.273Z,10.83
2018-05-02T19:03:59.236Z,13.13
2018-05-02T19:06:29.198Z,16.90
2018-05-02T19:08:58.643Z,12.50
2018-05-02T19:11:28.765Z,12.43
2018-05-02T19:14:01.712Z,12.37
2018-05-02T19:16:30.945Z,13.03
2018-05-02T19:19:05.746Z,11.23
2018-05-02T19:21:35.476Z,14.63
2018-05-02T19:24:04.723Z,13.67
2018-05-02T19:26:37.698Z,10.37
2018-05-02T19:29:06.593Z,13.27
2018-05-02T19:31:41.211Z,12.40
2018-05-02T19:34:10.701Z,10.63
2018-05-02T19:36:40.632Z,12.10
2018-05-02T19:39:10.622Z,13.53
2018-05-02T19:41:45.000Z,12.93
2018-05-02T19:44:14.964Z,17.43
2018-05-02T19:46:45.248Z,12.73
2018-05-02T19:49:15.838Z,14.23
2018-05-02T19:54:51.592Z,11.40
2018-05-02T19:57:21.833Z,11.90
2018-05-02T19:59:50.872Z,12.77
2018-05-02T20:02:25.441Z,12.57
2018-05-02T20:04:54.629Z,10.90
2018-05-02T20:07:28.695Z,12.27
2018-05-02T20:10:03.208Z,12.90
2018-05-02T20:12:38.052Z,19.20
2018-05-02T20:15:06.900Z,14.93
2018-05-02T20:17:35.721Z,14.87
2018-05-02T20:20:04.752Z,9.57
2018-05-02T20:22:33.754Z,12.50
2018-05-02T20:25:03.375Z,12.33
2018-05-02T20:27:33.123Z,13.23
2018-05-02T20:30:02.867Z,16.07
2018-05-02T20:32:31.988Z,14.57
2018-05-02T20:35:03.263Z,13.13
2018-05-02T20:37:32.129Z,13.83
2018-05-02T20:40:01.177Z,13.33
2018-05-02T20:42:30.357Z,11.30
2018-05-02T20:44:59.848Z,15.30
2018-05-02T20:47:29.144Z,13.63
2018-05-02T20:49:57.869Z,14.27
2018-05-02T20:52:26.701Z,8.80
2018-05-02T20:54:55.574Z,13.87
2018-05-02T20:57:24.476Z,14.43
2018-05-02T20:59:54.532Z,12.97
2018-05-02T21:02:24.363Z,15.43
2018-05-02T21:04:54.586Z,11.83
2018-05-02T21:07:24.279Z,15.10
2018-05-02T21:09:53.014Z,17.73
2018-05-02T21:12:21.796Z,12.80
2018-05-02T21:14:50.441Z,13.43
2018-05-02T21:17:19.179Z,13.97
2018-05-02T21:19:47.910Z,12.77
2018-05-02T21:22:17.728Z,11.53
2018-05-02T21:24:46.655Z,12.40
2018-05-02T21:27:16.184Z,16.90
2018-05-02T21:29:45.203Z,16.83
2018-05-02T21:32:15.281Z,13.33
2018-05-02T21:34:45.191Z,18.03
2018-05-02T21:37:14.042Z,15.70
2018-05-02T21:39:43.701Z,12.53
2018-05-02T21:42:12.540Z,10.40
2018-05-02T21:44:41.206Z,15.87
2018-05-02T21:47:11.619Z,13.40
2018-05-02T21:49:40.485Z,11.33
2018-05-02T21:52:09.249Z,11.57
2018-05-02T21:54:38.264Z,10.43
2018-05-02T21:57:07.940Z,10.57
2018-05-02T21:59:37.573Z,13.33
2018-05-02T22:02:07.014Z,14.53
2018-05-02T22:04:36.286Z,13.50
2018-05-02T22:07:05.214Z,12.17
2018-05-02T22:09:35.311Z,13.00
2018-05-02T22:12:05.077Z,14.53
2018-05-02T22:14:34.663Z,13.27
2018-05-02T22:17:04.774Z,10.00
2018-05-02T22:19:33.584Z,12.40
2018-05-02T22:22:02.633Z,15.27
2018-05-02T22:24:32.516Z,13.73
2018-05-02T22:27:02.189Z,16.17
2018-05-02T22:29:33.035Z,15.13
2018-05-02T22:32:01.855Z,13.60
2018-05-02T22:34:30.627Z,16.07
2018-05-02T22:36:59.377Z,13.07
2018-05-02T22:39:29.668Z,13.97
2018-05-02T22:41:59.143Z,9.87
2018-05-02T22:44:27.917Z,15.27
2018-05-02T22:46:56.611Z,16.43
2018-05-02T22:49:25.329Z,11.67
2018-05-02T22:51:54.845Z,12.67
2018-05-02T22:54:24.630Z,11.70
2018-05-02T22:56:54.158Z,15.83
2018-05-02T22:59:23.595Z,18.33
2018-05-02T23:01:53.662Z,16.50
2018-05-02T23:04:22.421Z,15.13
2018-05-02T23:06:50.964Z,13.87
2018-05-02T23:09:20.176Z,9.77
2018-05-02T23:11:48.836Z,16.07
2018-05-02T23:14:17.410Z,18.40
2018-05-02T23:16:46.070Z,14.80
2018-05-02T23:19:14.594Z,15.67
2018-05-02T23:21:43.899Z,19.73
2018-05-02T23:24:12.592Z,13.83
2018-05-02T23:26:41.219Z,16.53
2018-05-02T23:29:11.219Z,20.70
2018-05-02T23:31:39.990Z,12.57
2018-05-02T23:34:08.689Z,11.23
2018-05-02T23:36:38.182Z,13.70
2018-05-02T23:39:06.776Z,18.83
2018-05-02T23:41:35.369Z,15.67
2018-05-02T23:44:04.036Z,13.37
2018-05-02T23:46:32.643Z,11.63
2018-05-02T23:49:01.342Z,17.87
2018-05-02T23:51:30.490Z,15.27
2018-05-02T23:53:59.149Z,21.03
2018-05-02T23:56:28.542Z,19.23
2018-05-02T23:58:57.579Z,16.63
